createdAt,value
2019-01-11T00:03:18.722Z,13.90
2019-01-11T00:08:20.719Z,12.90
2019-01-11T00:13:22.727Z,12.10
2019-01-11T00:18:25.634Z,15.28
2019-01-11T00:23:27.626Z,10.50
2019-01-11T00:28:29.734Z,12.10
2019-01-11T00:33:31.827Z,10.15
2019-01-11T00:38:33.877Z,9.13
2019-01-11T00:43:35.941Z,9.20
2019-01-11T00:48:37.937Z,9.73
2019-01-11T00:53:39.957Z,16.07
2019-01-11T00:58:41.982Z,12.80
2019-01-11T01:03:44.252Z,11.78
2019-01-11T01:08:46.292Z,14.33
2019-01-11T01:13:48.312Z,15.55
2019-01-11T01:18:50.602Z,13.80
2019-01-11T01:23:52.795Z,20.27
2019-01-11T01:28:54.782Z,25.10
2019-01-11T01:33:56.819Z,22.40
2019-01-11T01:38:58.819Z,18.37
2019-01-11T01:44:01.142Z,16.25
2019-01-11T01:49:03.504Z,16.60
2019-01-11T01:54:46.358Z,14.85
2019-01-11T01:59:48.826Z,15.65
2019-01-11T02:04:50.897Z,20.97
2019-01-11T02:09:52.875Z,19.17
2019-01-11T02:14:55.203Z,14.38
2019-01-11T02:19:57.216Z,13.13
2019-01-11T02:24:59.369Z,14.45
2019-01-11T02:30:01.360Z,17.35
2019-01-11T02:35:44.258Z,17.70
2019-01-11T02:40:46.352Z,13.22
2019-01-11T02:45:48.382Z,15.43
2019-01-11T02:50:50.380Z,12.70
2019-01-11T02:55:52.379Z,18.37
2019-01-11T03:00:54.444Z,18.50
2019-01-11T03:11:06.470Z,18.00
2019-01-11T03:16:08.858Z,17.20
2019-01-11T03:21:10.869Z,18.37
2019-01-11T03:26:12.921Z,17.35
2019-01-11T03:31:34.517Z,17.17
2019-01-11T03:36:36.584Z,15.55
2019-01-11T03:41:58.159Z,18.32
2019-01-11T03:47:00.187Z,17.42
2019-01-11T03:52:02.300Z,18.92
2019-01-11T03:57:04.297Z,16.90
2019-01-11T04:02:06.429Z,21.52
2019-01-11T04:07:08.449Z,20.37
2019-01-11T04:12:10.499Z,20.02
2019-01-11T04:17:12.526Z,17.30
2019-01-11T04:22:34.147Z,25.70
2019-01-11T04:27:36.199Z,20.40
2019-01-11T04:32:38.478Z,21.30
2019-01-11T04:37:40.680Z,23.38
2019-01-11T04:42:42.667Z,22.40
2019-01-11T04:47:44.674Z,26.95
2019-01-11T04:52:46.821Z,26.27
2019-01-11T04:57:48.813Z,25.55
2019-01-11T05:02:50.823Z,31.33
2019-01-11T05:07:53.169Z,30.10
2019-01-11T05:23:15.293Z,37.60
2019-01-11T05:28:17.339Z,32.30
2019-01-11T05:33:19.377Z,39.33
2019-01-11T05:38:21.404Z,37.67
2019-01-11T05:43:23.770Z,40.78
2019-01-11T05:48:25.818Z,42.60
2019-01-11T05:53:27.848Z,41.58
2019-01-11T05:58:31.314Z,42.95
2019-01-11T06:03:33.333Z,42.88
2019-01-11T06:08:35.921Z,38.85
2019-01-11T06:13:38.022Z,43.08
2019-01-11T06:18:40.143Z,46.65
2019-01-11T06:23:42.198Z,45.90
2019-01-11T06:28:44.246Z,42.75
2019-01-11T06:33:46.538Z,49.05
2019-01-11T06:38:48.583Z,54.15
2019-01-11T06:43:50.904Z,64.87
2019-01-11T06:48:53.054Z,58.05
2019-01-11T06:53:55.142Z,62.15
2019-01-11T06:58:57.225Z,62.93
2019-01-11T07:03:59.501Z,58.28
2019-01-11T07:09:01.526Z,71.65
2019-01-11T07:14:03.909Z,71.02
2019-01-11T07:19:05.986Z,67.25
2019-01-11T07:24:08.095Z,74.60
2019-01-11T07:29:10.156Z,67.10
2019-01-11T07:34:12.293Z,61.80
2019-01-11T07:39:33.957Z,60.60
2019-01-11T07:44:36.452Z,65.25
2019-01-11T07:49:38.532Z,59.00
2019-01-11T07:54:40.540Z,56.80
2019-01-11T07:59:42.710Z,58.00
2019-01-11T08:04:45.374Z,58.30
2019-01-11T08:14:57.825Z,68.55
2019-01-11T08:20:00.038Z,62.30
2019-01-11T08:30:14.260Z,59.23
2019-01-11T08:35:16.615Z,54.48
2019-01-11T08:40:18.687Z,56.00
2019-01-11T08:45:20.925Z,56.60
2019-01-11T08:50:23.029Z,55.80
2019-01-11T08:55:25.197Z,53.20
2019-01-11T09:00:27.282Z,56.58
2019-01-11T09:05:29.835Z,55.17
2019-01-11T09:10:32.245Z,55.83
2019-01-11T09:15:34.294Z,56.10
2019-01-11T09:25:46.875Z,55.80
2019-01-11T09:30:50.201Z,52.20
2019-01-11T09:35:52.340Z,44.30
2019-01-11T09:40:54.547Z,44.70
2019-01-11T09:45:57.375Z,43.68
2019-01-11T09:50:59.413Z,40.65
2019-01-11T09:56:01.517Z,43.42
2019-01-11T10:01:03.941Z,43.60
2019-01-11T10:06:06.463Z,45.45
2019-01-11T10:11:08.684Z,43.45
2019-01-11T10:16:10.733Z,48.90
2019-01-11T10:21:12.919Z,48.20
2019-01-11T10:26:14.950Z,54.00
2019-01-11T10:31:17.139Z,50.17
2019-01-11T10:36:19.183Z,51.13
2019-01-11T10:41:21.276Z,53.87
2019-01-11T10:46:48.896Z,52.08
2019-01-11T10:51:47.201Z,57.27
2019-01-11T10:56:49.262Z,59.42
2019-01-11T11:01:51.302Z,52.75
2019-01-11T11:06:53.356Z,51.02
2019-01-11T11:11:55.469Z,58.83
2019-01-11T11:16:57.523Z,58.58
2019-01-11T11:21:59.635Z,58.13
2019-01-11T11:27:01.885Z,60.40
2019-01-11T11:32:04.073Z,67.12
2019-01-11T11:42:16.958Z,63.50
2019-01-11T11:47:20.513Z,65.47
2019-01-11T11:52:22.525Z,60.48
2019-01-11T11:57:24.538Z,65.65
2019-01-11T12:02:26.648Z,63.20
2019-01-11T12:07:28.744Z,61.77
2019-01-11T12:12:31.495Z,58.65
2019-01-11T12:17:36.070Z,62.27
2019-01-11T12:22:39.894Z,63.45
2019-01-11T12:27:42.651Z,60.25
2019-01-11T12:32:44.708Z,59.50
2019-01-11T12:37:46.716Z,63.50
2019-01-11T12:42:48.754Z,59.00
2019-01-11T12:47:50.774Z,55.45
2019-01-11T12:52:52.775Z,66.72
2019-01-11T12:57:54.817Z,55.48
2019-01-11T13:02:57.012Z,58.42
2019-01-11T13:07:59.010Z,63.85
2019-01-11T13:13:01.102Z,68.30
2019-01-11T13:18:03.247Z,64.80
2019-01-11T13:23:06.460Z,73.42
2019-01-11T13:28:09.534Z,58.90
2019-01-11T13:33:11.688Z,64.65
2019-01-11T13:38:13.718Z,64.85
2019-01-11T13:43:15.767Z,62.70
2019-01-11T13:48:17.831Z,58.00
2019-01-11T13:53:20.053Z,65.47
2019-01-11T13:58:22.158Z,74.00
2019-01-11T14:03:24.224Z,64.32
2019-01-11T14:08:26.351Z,67.12
2019-01-11T14:13:28.410Z,70.78
2019-01-11T14:18:30.462Z,67.85
2019-01-11T14:23:32.513Z,74.80
2019-01-11T14:28:34.581Z,72.20
2019-01-11T14:33:36.903Z,74.22
2019-01-11T14:38:38.897Z,82.60
2019-01-11T14:43:40.950Z,72.08
2019-01-11T14:48:43.030Z,70.52
2019-01-11T14:53:45.086Z,74.47
2019-01-11T14:58:47.131Z,75.47
2019-01-11T15:03:49.168Z,83.17
2019-01-11T15:08:51.250Z,76.47
2019-01-11T15:13:53.231Z,80.75
2019-01-11T15:18:55.311Z,75.40
2019-01-11T15:23:57.316Z,68.92
2019-01-11T15:28:59.342Z,80.00
2019-01-11T15:34:01.541Z,67.97
2019-01-11T15:39:26.872Z,73.15
2019-01-11T15:44:28.830Z,81.42
2019-01-11T15:49:30.910Z,85.92
2019-01-11T15:54:32.989Z,83.47
2019-01-11T16:00:18.797Z,87.22
2019-01-11T16:05:20.866Z,78.55
2019-01-11T16:10:23.128Z,70.47
2019-01-11T16:16:04.060Z,76.30
2019-01-11T16:21:06.100Z,78.30
2019-01-11T16:26:08.180Z,73.85
2019-01-11T16:31:10.215Z,71.65
2019-01-11T16:36:12.244Z,77.75
2019-01-11T16:41:14.259Z,77.05
2019-01-11T16:46:16.316Z,76.92
2019-01-11T16:51:18.314Z,80.72
2019-01-11T16:56:27.855Z,84.40
2019-01-11T17:01:29.858Z,80.57
2019-01-11T17:06:32.240Z,70.60
2019-01-11T17:11:34.482Z,72.22
2019-01-11T17:16:36.601Z,89.80
2019-01-11T17:21:38.718Z,80.10
2019-01-11T17:26:40.847Z,83.67
2019-01-11T17:31:43.005Z,83.10
2019-01-11T17:36:45.449Z,71.20
2019-01-11T17:41:48.160Z,81.55
2019-01-11T17:46:50.204Z,72.72
2019-01-11T17:51:52.407Z,74.72
2019-01-11T17:56:54.609Z,71.35
2019-01-11T18:01:56.888Z,66.47
2019-01-11T18:06:59.260Z,75.67
2019-01-11T18:12:01.421Z,82.62
2019-01-11T18:17:03.502Z,73.97
2019-01-11T18:22:05.569Z,73.07
2019-01-11T18:27:07.669Z,75.90
2019-01-11T18:32:09.727Z,77.32
2019-01-11T18:37:11.803Z,77.27
2019-01-11T18:42:13.829Z,77.10
2019-01-11T18:47:15.884Z,79.92
2019-01-11T18:52:17.978Z,67.70
2019-01-11T18:57:20.128Z,79.25
2019-01-11T19:02:22.238Z,72.60
2019-01-11T19:07:24.278Z,71.35
2019-01-11T19:12:26.594Z,71.28
2019-01-11T19:17:30.006Z,62.23
2019-01-11T19:22:32.650Z,73.87
2019-01-11T19:27:34.734Z,75.85
2019-01-11T19:32:36.827Z,78.95
2019-01-11T19:37:58.330Z,77.35
2019-01-11T19:43:00.388Z,74.70
2019-01-11T19:48:03.082Z,71.72
2019-01-11T19:53:05.260Z,69.82
2019-01-11T19:58:07.309Z,70.08
2019-01-11T20:03:09.385Z,74.90
2019-01-11T20:08:11.496Z,64.80
2019-01-11T20:13:13.803Z,73.25
2019-01-11T20:18:15.899Z,69.27
2019-01-11T20:23:17.945Z,74.67
2019-01-11T20:28:20.236Z,85.05
2019-01-11T20:33:22.768Z,73.02
2019-01-11T20:38:24.938Z,76.50
2019-01-11T20:43:27.022Z,78.50
2019-01-11T20:48:29.191Z,78.47
2019-01-11T20:53:31.347Z,75.65
2019-01-11T20:58:33.471Z,71.60
2019-01-11T21:03:35.502Z,69.12
2019-01-11T21:08:37.625Z,64.17
2019-01-11T21:13:39.700Z,67.32
2019-01-11T21:18:42.329Z,72.80
2019-01-11T21:23:48.613Z,66.67
2019-01-11T21:28:48.700Z,73.50
2019-01-11T21:33:50.809Z,64.90
2019-01-11T21:38:52.842Z,64.55
2019-01-11T21:43:55.565Z,74.07
2019-01-11T21:48:57.641Z,71.05
2019-01-11T21:54:00.157Z,59.20
2019-01-11T21:59:03.351Z,72.40
2019-01-11T22:04:05.448Z,85.10
2019-01-11T22:09:08.187Z,58.05
2019-01-11T22:14:10.283Z,62.17
2019-01-11T22:19:12.845Z,64.53
2019-01-11T22:24:14.967Z,70.12
2019-01-11T22:29:17.113Z,71.10
2019-01-11T22:34:19.259Z,66.00
2019-01-11T22:39:21.322Z,67.97
2019-01-11T22:44:23.511Z,60.10
2019-01-11T22:49:26.112Z,65.78
2019-01-11T22:54:28.238Z,62.53
2019-01-11T22:59:30.288Z,66.97
2019-01-11T23:04:32.331Z,67.08
2019-01-11T23:09:59.493Z,60.33
2019-01-11T23:15:01.539Z,64.95
2019-01-11T23:20:04.825Z,70.28
2019-01-11T23:25:07.235Z,62.60
2019-01-11T23:30:28.822Z,64.20
2019-01-11T23:35:30.890Z,65.00
2019-01-11T23:40:32.944Z,62.17
2019-01-11T23:45:35.466Z,64.82
2019-01-11T23:50:37.519Z,65.85
2019-01-11T23:55:39.618Z,70.30
